createdAt,value
2019-05-03T00:00:42.632Z,10.96
2019-05-03T00:03:12.861Z,10.96
2019-05-03T00:05:45.508Z,10.95
2019-05-03T00:08:14.855Z,10.94
2019-05-03T00:10:44.302Z,10.95
2019-05-03T00:13:13.676Z,10.93
2019-05-03T00:15:57.969Z,10.93
2019-05-03T00:18:27.341Z,10.93
2019-05-03T00:20:56.871Z,10.91
2019-05-03T00:23:26.213Z,10.92
2019-05-03T00:25:55.563Z,10.91
2019-05-03T00:28:24.904Z,10.90
2019-05-03T00:30:54.235Z,10.89
2019-05-03T00:33:23.591Z,10.88
2019-05-03T00:36:27.046Z,10.88
2019-05-03T00:39:01.960Z,10.89
2019-05-03T00:41:32.034Z,10.89
2019-05-03T00:44:02.249Z,10.87
2019-05-03T00:46:32.717Z,10.87
2019-05-03T00:49:03.820Z,10.86
2019-05-03T00:51:33.334Z,10.85
2019-05-03T00:54:02.672Z,10.85
2019-05-03T00:56:32.205Z,10.85
2019-05-03T00:59:02.160Z,10.85
2019-05-03T01:01:32.132Z,10.85
2019-05-03T01:04:01.895Z,10.83
2019-05-03T01:06:31.826Z,10.83
2019-05-03T01:09:02.679Z,10.82
2019-05-03T01:11:32.485Z,10.82
2019-05-03T01:14:02.653Z,10.81
2019-05-03T01:16:32.083Z,10.82
2019-05-03T01:19:02.618Z,10.82
2019-05-03T01:21:32.046Z,10.81
2019-05-03T01:24:01.723Z,10.76
2019-05-03T01:26:31.922Z,10.76
2019-05-03T01:29:02.708Z,10.79
2019-05-03T01:31:32.149Z,10.79
2019-05-03T01:34:02.336Z,10.78
2019-05-03T01:36:32.216Z,10.79
2019-05-03T01:39:02.128Z,10.78
2019-05-03T01:41:32.369Z,10.78
2019-05-03T01:44:02.035Z,10.76
2019-05-03T01:46:31.728Z,10.76
2019-05-03T01:49:26.358Z,10.76
2019-05-03T01:52:02.406Z,10.78
2019-05-03T01:54:32.205Z,10.77
2019-05-03T01:57:02.416Z,10.78
2019-05-03T01:59:32.161Z,10.78
2019-05-03T02:02:08.117Z,10.75
2019-05-03T02:04:41.793Z,10.76
2019-05-03T02:07:11.725Z,10.74
2019-05-03T02:09:41.727Z,10.74
2019-05-03T02:12:12.711Z,10.73
2019-05-03T02:14:42.314Z,10.73
2019-05-03T02:17:12.394Z,10.75
2019-05-03T02:19:42.249Z,10.75
2019-05-03T02:22:12.046Z,10.76
2019-05-03T02:24:42.258Z,10.76
2019-05-03T02:27:12.769Z,10.77
2019-05-03T02:29:42.211Z,10.78
2019-05-03T02:32:13.200Z,10.78
2019-05-03T02:34:43.969Z,10.78
2019-05-03T02:37:14.068Z,10.77
2019-05-03T02:39:43.454Z,10.78
2019-05-03T02:42:15.830Z,10.79
2019-05-03T02:44:46.223Z,10.80
2019-05-03T02:47:35.564Z,10.80
2019-05-03T02:50:16.451Z,10.80
2019-05-03T02:52:45.810Z,10.80
2019-05-03T02:55:16.412Z,10.80
2019-05-03T02:57:46.527Z,10.81
2019-05-03T03:00:18.718Z,10.82
2019-05-03T03:02:48.058Z,10.82
2019-05-03T03:05:17.431Z,10.84
2019-05-03T03:07:48.700Z,10.83
2019-05-03T03:10:18.254Z,10.83
2019-05-03T03:12:50.855Z,10.84
2019-05-03T03:15:20.225Z,10.84
2019-05-03T03:17:52.246Z,10.84
2019-05-03T03:20:21.578Z,10.86
2019-05-03T03:22:55.589Z,10.84
2019-05-03T03:25:28.567Z,10.84
2019-05-03T03:28:01.645Z,10.84
2019-05-03T03:31:20.778Z,10.86
2019-05-03T03:33:49.861Z,10.86
2019-05-03T03:36:53.313Z,10.85
2019-05-03T03:38:50.881Z,10.84
2019-05-03T03:41:21.157Z,10.84
2019-05-03T03:43:55.772Z,10.83
2019-05-03T03:46:26.969Z,10.84
2019-05-03T03:48:56.943Z,10.84
2019-05-03T03:51:27.734Z,10.81
2019-05-03T03:53:59.863Z,10.86
2019-05-03T03:56:32.702Z,10.86
2019-05-03T03:59:02.936Z,10.86
2019-05-03T04:01:34.933Z,10.88
2019-05-03T04:04:05.568Z,10.88
2019-05-03T04:06:41.599Z,10.89
2019-05-03T04:09:11.136Z,10.88
2019-05-03T04:11:41.407Z,10.84
2019-05-03T04:14:16.128Z,10.88
2019-05-03T04:17:05.878Z,10.88
2019-05-03T04:19:36.404Z,10.88
2019-05-03T04:22:06.139Z,10.87
2019-05-03T04:24:35.881Z,10.87
2019-05-03T04:27:15.539Z,10.88
2019-05-03T04:29:38.642Z,10.86
2019-05-03T04:32:09.531Z,10.86
2019-05-03T04:34:38.954Z,10.87
2019-05-03T04:37:08.341Z,10.87
2019-05-03T04:39:37.681Z,10.85
2019-05-03T04:42:07.177Z,10.85
2019-05-03T04:44:36.538Z,10.83
2019-05-03T04:47:06.785Z,10.81
2019-05-03T04:49:36.653Z,10.87
2019-05-03T04:52:06.405Z,10.87
2019-05-03T04:54:56.820Z,10.87
2019-05-03T04:57:39.856Z,10.88
2019-05-03T04:59:57.501Z,10.86
2019-05-03T05:02:26.849Z,10.87
2019-05-03T05:04:56.221Z,10.88
2019-05-03T05:07:26.404Z,10.87
2019-05-03T05:09:56.492Z,10.87
2019-05-03T05:12:25.901Z,10.86
2019-05-03T05:14:56.546Z,10.85
2019-05-03T05:17:36.212Z,10.85
2019-05-03T05:20:14.428Z,10.85
2019-05-03T05:22:45.291Z,10.85
2019-05-03T05:25:18.330Z,10.85
2019-05-03T05:28:04.707Z,10.84
2019-05-03T05:30:35.300Z,10.86
2019-05-03T05:33:06.486Z,10.85
2019-05-03T05:35:35.832Z,10.86
2019-05-03T05:38:05.163Z,10.87
2019-05-03T05:40:35.021Z,10.86
2019-05-03T05:43:04.889Z,10.85
2019-05-03T05:45:34.971Z,10.88
2019-05-03T05:48:08.090Z,10.89
2019-05-03T05:50:44.768Z,10.89
2019-05-03T05:53:15.253Z,10.91
2019-05-03T05:56:12.507Z,10.90
2019-05-03T05:58:55.374Z,10.88
2019-05-03T06:01:38.311Z,10.90
2019-05-03T06:04:09.956Z,10.92
2019-05-03T06:06:57.853Z,10.92
2019-05-03T06:09:55.338Z,10.93
2019-05-03T06:15:51.844Z,10.93
2019-05-03T06:18:26.238Z,10.94
2019-05-03T06:21:20.928Z,10.94
2019-05-03T06:23:56.350Z,10.94
2019-05-03T06:26:34.878Z,10.99
2019-05-03T06:29:04.686Z,11.00
2019-05-03T06:32:11.400Z,11.02
2019-05-03T06:34:40.752Z,11.03
2019-05-03T06:37:14.799Z,11.03
2019-05-03T06:39:45.372Z,11.02
2019-05-03T06:42:22.836Z,11.03
2019-05-03T06:44:54.120Z,11.03
2019-05-03T06:47:25.290Z,11.03
2019-05-03T06:49:55.221Z,11.01
2019-05-03T06:52:29.047Z,11.00
2019-05-03T06:55:00.487Z,10.99
2019-05-03T06:57:26.991Z,10.99
2019-05-03T07:00:30.640Z,10.95
2019-05-03T07:03:05.643Z,10.95
2019-05-03T07:05:54.900Z,10.94
2019-05-03T07:08:51.536Z,10.99
2019-05-03T07:11:20.894Z,10.99
2019-05-03T07:13:50.269Z,11.00
2019-05-03T07:16:19.635Z,10.99
2019-05-03T07:18:49.004Z,10.99
2019-05-03T07:21:18.367Z,10.99
2019-05-03T07:23:47.714Z,11.00
2019-05-03T07:26:17.081Z,10.99
2019-05-03T07:28:49.956Z,10.99
2019-05-03T07:31:17.540Z,11.07
2019-05-03T07:33:46.884Z,11.07
2019-05-03T07:36:16.264Z,11.10
2019-05-03T07:38:45.616Z,11.15
2019-05-03T07:41:15.054Z,11.22
2019-05-03T07:43:45.118Z,11.26
2019-05-03T07:46:14.814Z,11.32
2019-05-03T07:48:45.697Z,11.37
2019-05-03T07:51:15.067Z,11.45
2019-05-03T07:53:45.162Z,11.45
2019-05-03T07:56:17.455Z,11.49
2019-05-03T07:58:59.307Z,11.49
2019-05-03T08:01:28.173Z,11.55
2019-05-03T08:03:57.646Z,11.58
2019-05-03T08:06:26.990Z,11.59
2019-05-03T08:08:56.350Z,11.62
2019-05-03T08:11:25.718Z,11.65
2019-05-03T08:13:55.157Z,11.77
2019-05-03T08:16:25.236Z,11.87
2019-05-03T08:18:55.784Z,11.87
2019-05-03T08:21:25.483Z,11.86
2019-05-03T08:23:55.700Z,11.86
2019-05-03T08:26:25.891Z,11.91
2019-05-03T08:28:55.343Z,12.14
2019-05-03T08:31:38.834Z,12.14
2019-05-03T08:34:27.093Z,12.34
2019-05-03T08:37:05.175Z,12.34
2019-05-03T08:39:35.632Z,12.48
2019-05-03T08:42:12.155Z,12.48
2019-05-03T08:44:41.506Z,12.54
2019-05-03T08:47:10.850Z,12.57
2019-05-03T08:49:40.221Z,12.53
2019-05-03T08:52:09.577Z,12.53
2019-05-03T08:54:38.952Z,12.53
2019-05-03T08:57:08.315Z,12.55
2019-05-03T08:59:37.671Z,12.61
2019-05-03T09:02:14.127Z,12.61
2019-05-03T09:04:42.686Z,12.65
2019-05-03T09:07:09.198Z,12.68
2019-05-03T09:09:51.288Z,12.73
2019-05-03T09:12:20.657Z,12.79
2019-05-03T09:14:50.010Z,12.81
2019-05-03T09:17:19.370Z,12.81
2019-05-03T09:19:48.763Z,12.83
2019-05-03T09:22:18.199Z,12.83
2019-05-03T09:24:47.567Z,12.80
2019-05-03T09:27:16.942Z,12.77
2019-05-03T09:29:46.387Z,12.72
2019-05-03T09:32:15.758Z,12.72
2019-05-03T09:34:45.127Z,12.72
2019-05-03T09:37:15.506Z,12.75
2019-05-03T09:39:44.886Z,12.80
2019-05-03T09:42:15.419Z,12.83
2019-05-03T09:44:45.200Z,12.83
2019-05-03T09:47:14.796Z,12.85
2019-05-03T09:49:45.386Z,12.85
2019-05-03T09:52:15.994Z,12.86
2019-05-03T09:54:49.459Z,12.89
2019-05-03T09:57:18.803Z,12.92
2019-05-03T09:59:57.179Z,13.00
2019-05-03T10:02:19.268Z,13.00
2019-05-03T10:04:48.612Z,13.06
2019-05-03T10:07:18.066Z,13.09
2019-05-03T10:09:47.422Z,13.13
2019-05-03T10:12:20.436Z,13.19
2019-05-03T10:14:49.793Z,13.26
2019-05-03T10:17:38.077Z,13.34
2019-05-03T10:20:09.111Z,13.39
2019-05-03T10:22:38.460Z,13.42
2019-05-03T10:25:08.111Z,13.46
2019-05-03T10:27:46.045Z,13.47
2019-05-03T10:30:20.235Z,13.41
2019-05-03T10:32:55.385Z,13.41
2019-05-03T10:35:24.748Z,13.41
2019-05-03T10:37:54.856Z,13.45
2019-05-03T10:40:27.808Z,13.45
2019-05-03T10:42:57.264Z,13.46
2019-05-03T10:45:28.128Z,13.49
2019-05-03T10:47:57.557Z,13.49
2019-05-03T10:50:26.912Z,13.49
2019-05-03T10:53:05.287Z,13.54
2019-05-03T10:55:35.783Z,13.58
2019-05-03T10:58:19.066Z,13.65
2019-05-03T11:00:53.388Z,13.70
2019-05-03T11:03:22.065Z,13.71
2019-05-03T11:05:51.444Z,13.80
2019-05-03T11:08:20.779Z,13.88
2019-05-03T11:10:50.145Z,13.91
2019-05-03T11:13:19.491Z,13.94
2019-05-03T11:15:48.848Z,13.97
2019-05-03T11:18:18.214Z,13.98
2019-05-03T11:20:47.547Z,14.05
2019-05-03T11:23:16.891Z,14.08
2019-05-03T11:25:46.359Z,14.12
2019-05-03T11:28:20.736Z,14.12
2019-05-03T11:30:55.363Z,14.11
2019-05-03T11:33:27.656Z,14.09
2019-05-03T11:36:21.852Z,14.11
2019-05-03T11:38:51.199Z,14.05
2019-05-03T11:41:30.280Z,14.01
2019-05-03T11:43:51.615Z,13.94
2019-05-03T11:46:20.981Z,13.87
2019-05-03T11:48:50.317Z,13.81
2019-05-03T11:51:19.700Z,13.72
2019-05-03T11:53:49.036Z,13.66
2019-05-03T11:56:19.613Z,13.61
2019-05-03T11:58:49.051Z,13.58
2019-05-03T12:01:25.769Z,13.58
2019-05-03T12:03:58.865Z,13.59
2019-05-03T12:06:28.213Z,13.62
2019-05-03T12:08:57.591Z,13.81
2019-05-03T12:11:28.602Z,14.02
2019-05-03T12:14:15.485Z,13.98
2019-05-03T12:17:19.478Z,13.94
2019-05-03T12:19:37.755Z,14.02
2019-05-03T12:22:06.707Z,14.01
2019-05-03T12:24:37.225Z,14.05
2019-05-03T12:27:06.906Z,14.00
2019-05-03T12:29:36.243Z,14.02
2019-05-03T12:32:05.600Z,14.06
2019-05-03T12:34:35.335Z,14.14
2019-05-03T12:37:05.307Z,14.15
2019-05-03T12:39:35.733Z,14.10
2019-05-03T12:42:06.606Z,14.15
2019-05-03T12:44:35.972Z,14.21
2019-05-03T12:47:06.148Z,14.20
2019-05-03T12:49:36.052Z,14.08
2019-05-03T12:52:05.594Z,13.97
2019-05-03T12:54:35.536Z,13.89
2019-05-03T12:57:05.386Z,13.85
2019-05-03T13:00:05.027Z,13.79
2019-05-03T13:02:44.648Z,13.64
2019-05-03T13:05:15.524Z,13.45
2019-05-03T13:08:05.552Z,13.29
2019-05-03T13:10:35.035Z,13.22
2019-05-03T13:13:04.375Z,13.21
2019-05-03T13:15:35.184Z,13.21
2019-05-03T13:18:05.008Z,13.17
2019-05-03T13:20:35.990Z,13.11
2019-05-03T13:23:05.609Z,13.08
2019-05-03T13:25:35.627Z,13.10
2019-05-03T13:28:05.541Z,13.11
2019-05-03T13:30:34.935Z,13.22
2019-05-03T13:33:05.767Z,13.37
2019-05-03T13:35:35.324Z,13.50
2019-05-03T13:38:04.685Z,13.65
2019-05-03T13:40:35.884Z,13.64
2019-05-03T13:43:06.624Z,13.62
2019-05-03T13:45:36.172Z,13.60
2019-05-03T13:48:05.534Z,13.62
2019-05-03T13:50:35.192Z,13.58
2019-05-03T13:53:04.956Z,13.53
2019-05-03T13:55:35.294Z,13.50
2019-05-03T13:58:05.206Z,13.51
2019-05-03T14:00:34.748Z,13.53
2019-05-03T14:03:04.660Z,13.72
2019-05-03T14:05:35.204Z,14.02
2019-05-03T14:08:05.205Z,14.02
2019-05-03T14:10:35.974Z,14.24
2019-05-03T14:13:05.731Z,14.32
2019-05-03T14:15:35.111Z,14.27
2019-05-03T14:18:05.945Z,14.36
2019-05-03T14:20:55.060Z,14.47
2019-05-03T14:23:25.327Z,14.52
2019-05-03T14:25:55.210Z,14.46
2019-05-03T14:28:25.263Z,14.49
2019-05-03T14:30:54.987Z,14.50
2019-05-03T14:33:24.840Z,14.49
2019-05-03T14:35:55.345Z,14.43
2019-05-03T14:38:25.436Z,14.31
2019-05-03T14:40:55.268Z,14.23
2019-05-03T14:43:24.997Z,14.22
2019-05-03T14:45:54.986Z,14.26
2019-05-03T14:48:24.969Z,14.33
2019-05-03T14:50:54.940Z,14.38
2019-05-03T14:53:25.636Z,14.42
2019-05-03T14:56:05.037Z,14.54
2019-05-03T14:59:09.747Z,14.60
2019-05-03T15:01:47.939Z,14.53
2019-05-03T15:04:25.421Z,14.48
2019-05-03T15:06:54.926Z,14.53
2019-05-03T15:09:25.987Z,14.50
2019-05-03T15:11:55.432Z,14.50
2019-05-03T15:14:25.179Z,14.47
2019-05-03T15:16:55.734Z,14.45
2019-05-03T15:19:25.503Z,14.40
2019-05-03T15:21:54.909Z,14.38
2019-05-03T15:24:25.228Z,14.43
2019-05-03T15:26:55.394Z,14.46
2019-05-03T15:29:24.942Z,14.44
2019-05-03T15:31:55.339Z,14.33
2019-05-03T15:34:24.943Z,14.25
2019-05-03T15:36:54.786Z,14.12
2019-05-03T15:39:24.320Z,14.05
2019-05-03T15:41:54.409Z,14.04
2019-05-03T15:44:45.831Z,14.06
2019-05-03T15:47:20.050Z,14.11
2019-05-03T15:49:49.467Z,14.08
2019-05-03T15:52:18.809Z,14.04
2019-05-03T15:54:48.268Z,14.03
2019-05-03T15:57:17.721Z,13.97
2019-05-03T15:59:47.177Z,13.92
2019-05-03T16:02:16.576Z,13.85
2019-05-03T16:04:45.963Z,13.78
2019-05-03T16:07:15.386Z,13.74
2019-05-03T16:09:44.740Z,13.73
2019-05-03T16:12:14.566Z,13.75
2019-05-03T16:14:44.573Z,13.77
2019-05-03T16:17:14.699Z,13.78
2019-05-03T16:19:45.061Z,13.80
2019-05-03T16:22:15.147Z,13.79
2019-05-03T16:24:47.021Z,13.79
2019-05-03T16:27:24.840Z,13.77
2019-05-03T16:30:05.228Z,13.78
2019-05-03T16:32:36.450Z,13.80
2019-05-03T16:35:05.852Z,13.84
2019-05-03T16:37:35.319Z,13.87
2019-05-03T16:40:05.183Z,13.90
2019-05-03T16:42:34.991Z,13.92
2019-05-03T16:45:05.616Z,13.95
2019-05-03T16:47:35.489Z,14.00
2019-05-03T16:50:06.443Z,14.01
2019-05-03T16:52:35.839Z,14.22
2019-05-03T16:55:05.326Z,14.72
2019-05-03T16:57:40.621Z,15.26
2019-05-03T17:00:10.164Z,15.72
2019-05-03T17:02:39.545Z,15.97
2019-05-03T17:05:19.674Z,16.14
2019-05-03T17:08:11.359Z,16.31
2019-05-03T17:10:45.425Z,16.50
2019-05-03T17:13:14.941Z,16.55
2019-05-03T17:15:44.269Z,16.51
2019-05-03T17:18:14.680Z,16.51
2019-05-03T17:20:45.312Z,16.48
2019-05-03T17:23:15.435Z,16.58
2019-05-03T17:25:45.087Z,16.75
2019-05-03T17:28:15.676Z,16.75
2019-05-03T17:30:45.192Z,16.74
2019-05-03T17:33:16.112Z,17.07
2019-05-03T17:35:45.580Z,17.07
2019-05-03T17:38:14.983Z,17.29
2019-05-03T17:41:01.942Z,17.60
2019-05-03T17:43:56.324Z,17.90
2019-05-03T17:46:25.661Z,18.16
2019-05-03T17:48:55.005Z,18.31
2019-05-03T17:51:42.184Z,18.43
2019-05-03T17:54:30.532Z,18.43
2019-05-03T17:57:04.612Z,18.41
2019-05-03T17:59:46.916Z,18.45
2019-05-03T18:02:33.247Z,18.38
2019-05-03T18:05:21.545Z,18.22
2019-05-03T18:08:07.919Z,17.95
2019-05-03T18:10:38.477Z,17.84
2019-05-03T18:13:07.856Z,17.69
2019-05-03T18:15:37.378Z,17.51
2019-05-03T18:18:06.723Z,17.36
2019-05-03T18:20:36.099Z,17.14
2019-05-03T18:23:05.488Z,16.75
2019-05-03T18:25:35.478Z,16.38
2019-05-03T18:28:04.964Z,16.00
2019-05-03T18:30:34.912Z,15.70
2019-05-03T18:33:04.862Z,15.49
2019-05-03T18:35:34.272Z,15.15
2019-05-03T18:38:03.649Z,15.15
2019-05-03T18:40:35.433Z,14.95
2019-05-03T18:43:16.912Z,14.59
2019-05-03T18:46:09.252Z,14.59
2019-05-03T18:48:38.605Z,14.41
2019-05-03T18:51:08.890Z,14.22
2019-05-03T18:53:38.245Z,14.06
2019-05-03T18:56:07.727Z,13.98
2019-05-03T18:58:37.074Z,13.89
2019-05-03T19:01:06.455Z,13.80
2019-05-03T19:03:35.905Z,13.70
2019-05-03T19:06:07.417Z,13.63
2019-05-03T19:09:05.320Z,13.55
2019-05-03T19:11:59.516Z,13.46
2019-05-03T19:14:28.871Z,13.38
2019-05-03T19:17:05.181Z,13.30
2019-05-03T19:19:37.741Z,13.20
2019-05-03T19:22:07.305Z,13.07
2019-05-03T19:24:36.768Z,12.97
2019-05-03T19:27:07.369Z,12.84
2019-05-03T19:29:37.054Z,12.78
2019-05-03T19:32:06.437Z,12.66
2019-05-03T19:34:47.689Z,12.56
2019-05-03T19:37:06.995Z,12.45
2019-05-03T19:39:36.369Z,12.37
2019-05-03T19:42:05.708Z,12.20
2019-05-03T19:44:36.944Z,12.20
2019-05-03T19:47:06.827Z,12.05
2019-05-03T19:49:36.279Z,11.99
2019-05-03T19:52:05.601Z,11.92
2019-05-03T19:54:36.552Z,11.92
2019-05-03T19:57:06.071Z,11.78
2019-05-03T19:59:56.737Z,11.78
2019-05-03T20:02:45.409Z,11.71
2019-05-03T20:05:34.446Z,11.55
2019-05-03T20:08:18.808Z,11.47
2019-05-03T20:10:48.170Z,11.41
2019-05-03T20:13:17.579Z,11.41
2019-05-03T20:15:49.755Z,11.28
2019-05-03T20:18:19.125Z,11.28
2019-05-03T20:20:48.459Z,11.27
2019-05-03T20:23:17.836Z,11.23
2019-05-03T20:25:47.199Z,11.19
2019-05-03T20:28:16.528Z,11.15
2019-05-03T20:30:45.881Z,11.11
2019-05-03T20:33:15.229Z,11.08
2019-05-03T20:35:45.175Z,11.05
2019-05-03T20:38:15.249Z,11.02
2019-05-03T20:40:45.077Z,11.00
2019-05-03T20:43:37.109Z,10.95
2019-05-03T20:46:16.519Z,10.95
2019-05-03T20:48:48.089Z,10.93
2019-05-03T20:51:17.454Z,10.93
2019-05-03T20:53:46.779Z,10.90
2019-05-03T20:56:16.156Z,10.86
2019-05-03T20:58:45.474Z,10.86
2019-05-03T21:01:15.333Z,10.82
2019-05-03T21:04:04.693Z,10.82
2019-05-03T21:06:35.828Z,10.73
2019-05-03T21:09:07.554Z,10.73
2019-05-03T21:11:36.913Z,10.70
2019-05-03T21:14:06.272Z,10.63
2019-05-03T21:16:52.094Z,10.63
2019-05-03T21:19:35.286Z,10.62
2019-05-03T21:22:14.493Z,10.62
2019-05-03T21:25:01.628Z,10.59
2019-05-03T21:27:30.959Z,10.60
2019-05-03T21:30:00.310Z,10.57
2019-05-03T21:32:29.633Z,10.51
2019-05-03T21:35:00.172Z,10.53
2019-05-03T21:37:29.529Z,10.53
2019-05-03T21:40:00.431Z,10.51
2019-05-03T21:42:29.774Z,10.50
2019-05-03T21:44:59.132Z,10.48
2019-05-03T21:47:38.710Z,10.48
2019-05-03T21:50:09.695Z,10.46
2019-05-03T21:52:39.044Z,10.44
2019-05-03T21:55:08.402Z,10.43
2019-05-03T21:57:37.736Z,10.42
2019-05-03T22:00:08.179Z,10.42
2019-05-03T22:02:37.526Z,10.39
2019-05-03T22:05:07.486Z,10.39
2019-05-03T22:07:36.817Z,10.38
2019-05-03T22:10:07.244Z,10.36
2019-05-03T22:12:36.567Z,10.35
2019-05-03T22:15:21.853Z,10.35
2019-05-03T22:18:04.744Z,10.35
2019-05-03T22:20:47.740Z,10.34
2019-05-03T22:23:36.703Z,10.33
2019-05-03T22:26:06.115Z,10.32
2019-05-03T22:28:35.443Z,10.30
2019-05-03T22:31:06.776Z,10.29
2019-05-03T22:33:35.949Z,10.27
2019-05-03T22:36:08.734Z,10.24
2019-05-03T22:38:38.432Z,10.23
2019-05-03T22:41:09.602Z,10.22
2019-05-03T22:43:38.966Z,10.19
2019-05-03T22:46:10.435Z,10.17
2019-05-03T22:48:39.966Z,10.14
2019-05-03T22:51:09.302Z,10.14
2019-05-03T22:53:38.679Z,10.11
2019-05-03T22:56:08.026Z,10.11
2019-05-03T22:58:37.372Z,10.11
2019-05-03T23:01:06.750Z,10.09
2019-05-03T23:03:44.829Z,10.08
2019-05-03T23:06:22.440Z,10.06
2019-05-03T23:08:47.073Z,10.04
2019-05-03T23:11:16.447Z,10.04
2019-05-03T23:14:01.618Z,10.04
2019-05-03T23:16:35.662Z,10.04
2019-05-03T23:19:05.505Z,10.04
2019-05-03T23:21:54.483Z,10.04
2019-05-03T23:24:24.740Z,10.03
2019-05-03T23:26:54.147Z,9.99
2019-05-03T23:29:23.501Z,9.96
2019-05-03T23:31:52.848Z,9.92
2019-05-03T23:34:22.189Z,9.90
2019-05-03T23:36:51.547Z,9.88
2019-05-03T23:39:20.887Z,9.85
2019-05-03T23:41:50.229Z,9.83
2019-05-03T23:44:20.616Z,9.82
2019-05-03T23:47:00.436Z,9.80
2019-05-03T23:49:29.783Z,9.78
2019-05-03T23:52:02.160Z,9.77
2019-05-03T23:54:31.680Z,9.78
2019-05-03T23:57:01.058Z,9.80
2019-05-03T23:59:30.377Z,9.81
